sensor_id;sensor_type;location;lat;lon;timestamp;pressure;altitude;pressure_sealevel;temperature
67509;BMP280;54354;44.724;11.284;2023-12-20T00:01:32;101701.84;;;11.43
67509;BMP280;54354;44.724;11.284;2023-12-20T00:03:57;101700.72;;;11.45
67509;BMP280;54354;44.724;11.284;2023-12-20T00:06:23;101696.91;;;11.46
67509;BMP280;54354;44.724;11.284;2023-12-20T00:08:49;101695.03;;;11.42
67509;BMP280;54354;44.724;11.284;2023-12-20T00:11:14;101691.97;;;11.44
67509;BMP280;54354;44.724;11.284;2023-12-20T00:13:40;101681.78;;;11.42
67509;BMP280;54354;44.724;11.284;2023-12-20T00:16:05;101678.38;;;11.38
67509;BMP280;54354;44.724;11.284;2023-12-20T00:18:31;101681.78;;;11.32
67509;BMP280;54354;44.724;11.284;2023-12-20T00:20:56;101681.47;;;11.26
67509;BMP280;54354;44.724;11.284;2023-12-20T00:23:22;101666.69;;;11.22
67509;BMP280;54354;44.724;11.284;2023-12-20T00:25:48;101673.91;;;11.18
67509;BMP280;54354;44.724;11.284;2023-12-20T00:28:14;101675.41;;;11.15
67509;BMP280;54354;44.724;11.284;2023-12-20T00:30:39;101669.00;;;11.12
67509;BMP280;54354;44.724;11.284;2023-12-20T00:33:05;101670.88;;;11.12
67509;BMP280;54354;44.724;11.284;2023-12-20T00:35:30;101658.38;;;11.09
67509;BMP280;54354;44.724;11.284;2023-12-20T00:37:58;101644.38;;;11.08
67509;BMP280;54354;44.724;11.284;2023-12-20T00:40:24;101642.84;;;11.07
67509;BMP280;54354;44.724;11.284;2023-12-20T00:42:49;101645.13;;;11.05
67509;BMP280;54354;44.724;11.284;2023-12-20T00:45:15;101632.66;;;11.06
67509;BMP280;54354;44.724;11.284;2023-12-20T00:47:41;101609.53;;;10.99
67509;BMP280;54354;44.724;11.284;2023-12-20T00:50:07;101620.88;;;11.07
67509;BMP280;54354;44.724;11.284;2023-12-20T00:52:32;101619.00;;;11.07
67509;BMP280;54354;44.724;11.284;2023-12-20T00:54:58;101607.28;;;11.08
67509;BMP280;54354;44.724;11.284;2023-12-20T00:57:23;101600.06;;;11.09
67509;BMP280;54354;44.724;11.284;2023-12-20T00:59:49;101598.19;;;11.09
67509;BMP280;54354;44.724;11.284;2023-12-20T01:02:14;101600.81;;;11.13
67509;BMP280;54354;44.724;11.284;2023-12-20T01:04:40;101594.72;;;11.16
67509;BMP280;54354;44.724;11.284;2023-12-20T01:07:05;101587.56;;;11.13
67509;BMP280;54354;44.724;11.284;2023-12-20T01:09:31;101576.22;;;11.09
67509;BMP280;54354;44.724;11.284;2023-12-20T01:11:56;101578.88;;;11.09
67509;BMP280;54354;44.724;11.284;2023-12-20T01:14:22;101582.66;;;11.04
67509;BMP280;54354;44.724;11.284;2023-12-20T01:16:47;101572.06;;;11.01
67509;BMP280;54354;44.724;11.284;2023-12-20T01:19:13;101572.84;;;10.98
67509;BMP280;54354;44.724;11.284;2023-12-20T01:21:39;101562.25;;;10.98
67509;BMP280;54354;44.724;11.284;2023-12-20T01:24:05;101565.66;;;10.98
67509;BMP280;54354;44.724;11.284;2023-12-20T01:26:30;101573.22;;;11.00
67509;BMP280;54354;44.724;11.284;2023-12-20T01:28:56;101567.53;;;11.01
67509;BMP280;54354;44.724;11.284;2023-12-20T01:31:21;101564.88;;;11.01
67509;BMP280;54354;44.724;11.284;2023-12-20T01:33:47;101566.41;;;10.99
67509;BMP280;54354;44.724;11.284;2023-12-20T01:36:12;101574.38;;;10.99
67509;BMP280;54354;44.724;11.284;2023-12-20T01:38:38;101566.44;;;10.91
67509;BMP280;54354;44.724;11.284;2023-12-20T01:41:03;101561.91;;;10.85
67509;BMP280;54354;44.724;11.284;2023-12-20T01:43:30;101560.81;;;10.82
67509;BMP280;54354;44.724;11.284;2023-12-20T01:45:59;101549.06;;;10.76
67509;BMP280;54354;44.724;11.284;2023-12-20T01:48:25;101541.06;;;10.87
67509;BMP280;54354;44.724;11.284;2023-12-20T01:50:52;101536.19;;;10.82
67509;BMP280;54354;44.724;11.284;2023-12-20T01:53:19;101535.06;;;10.76
67509;BMP280;54354;44.724;11.284;2023-12-20T01:55:45;101535.44;;;10.81
67509;BMP280;54354;44.724;11.284;2023-12-20T01:58:12;101527.88;;;10.76
67509;BMP280;54354;44.724;11.284;2023-12-20T02:00:38;101522.63;;;10.73
67509;BMP280;54354;44.724;11.284;2023-12-20T02:03:04;101518.06;;;10.73
67509;BMP280;54354;44.724;11.284;2023-12-20T02:05:31;101507.84;;;10.72
67509;BMP280;54354;44.724;11.284;2023-12-20T02:07:56;101519.56;;;10.74
67509;BMP280;54354;44.724;11.284;2023-12-20T02:10:22;101527.13;;;10.76
67509;BMP280;54354;44.724;11.284;2023-12-20T02:12:48;101516.91;;;10.74
67509;BMP280;54354;44.724;11.284;2023-12-20T02:15:14;101511.97;;;10.76
67509;BMP280;54354;44.724;11.284;2023-12-20T02:17:39;101501.38;;;10.76
67509;BMP280;54354;44.724;11.284;2023-12-20T02:20:05;101496.47;;;10.75
67509;BMP280;54354;44.724;11.284;2023-12-20T02:22:31;101508.22;;;10.74
67509;BMP280;54354;44.724;11.284;2023-12-20T02:24:57;101506.28;;;10.78
67509;BMP280;54354;44.724;11.284;2023-12-20T02:27:23;101499.84;;;10.75
67509;BMP280;54354;44.724;11.284;2023-12-20T02:29:49;101494.22;;;10.70
67509;BMP280;54354;44.724;11.284;2023-12-20T02:32:16;101488.94;;;10.70
67509;BMP280;54354;44.724;11.284;2023-12-20T02:34:42;101494.59;;;10.72
67509;BMP280;54354;44.724;11.284;2023-12-20T02:37:07;101491.91;;;10.75
67509;BMP280;54354;44.724;11.284;2023-12-20T02:39:33;101490.44;;;10.74
67509;BMP280;54354;44.724;11.284;2023-12-20T02:41:58;101484.75;;;10.76
67509;BMP280;54354;44.724;11.284;2023-12-20T02:44:24;101486.59;;;10.75
67509;BMP280;54354;44.724;11.284;2023-12-20T02:46:50;101479.09;;;10.74
67509;BMP280;54354;44.724;11.284;2023-12-20T02:49:15;101487.75;;;10.78
67509;BMP280;54354;44.724;11.284;2023-12-20T02:51:41;101483.19;;;10.78
67509;BMP280;54354;44.724;11.284;2023-12-20T02:54:06;101481.69;;;10.77
67509;BMP280;54354;44.724;11.284;2023-12-20T02:56:33;101468.84;;;10.76
67509;BMP280;54354;44.724;11.284;2023-12-20T02:58:58;101466.94;;;10.76
67509;BMP280;54354;44.724;11.284;2023-12-20T03:01:24;101470.72;;;10.75
67509;BMP280;54354;44.724;11.284;2023-12-20T03:03:50;101462.44;;;10.73
67509;BMP280;54354;44.724;11.284;2023-12-20T03:06:17;101460.53;;;10.70
67509;BMP280;54354;44.724;11.284;2023-12-20T03:08:44;101465.09;;;10.73
67509;BMP280;54354;44.724;11.284;2023-12-20T03:11:09;101460.91;;;10.72
67509;BMP280;54354;44.724;11.284;2023-12-20T03:13:35;101444.66;;;10.67
67509;BMP280;54354;44.724;11.284;2023-12-20T03:16:00;101452.97;;;10.69
67509;BMP280;54354;44.724;11.284;2023-12-20T03:18:26;101458.66;;;10.67
67509;BMP280;54354;44.724;11.284;2023-12-20T03:20:53;101459.00;;;10.69
67509;BMP280;54354;44.724;11.284;2023-12-20T03:23:18;101465.84;;;10.70
67509;BMP280;54354;44.724;11.284;2023-12-20T03:25:44;101460.53;;;10.70
67509;BMP280;54354;44.724;11.284;2023-12-20T03:28:09;101452.59;;;10.67
67509;BMP280;54354;44.724;11.284;2023-12-20T03:30:35;101460.94;;;10.65
67509;BMP280;54354;44.724;11.284;2023-12-20T03:33:00;101465.09;;;10.59
67509;BMP280;54354;44.724;11.284;2023-12-20T03:35:26;101453.38;;;10.60
67509;BMP280;54354;44.724;11.284;2023-12-20T03:37:51;101458.66;;;10.63
67509;BMP280;54354;44.724;11.284;2023-12-20T03:40:17;101454.16;;;10.64
67509;BMP280;54354;44.724;11.284;2023-12-20T03:42:42;101445.06;;;10.61
67509;BMP280;54354;44.724;11.284;2023-12-20T03:45:08;101434.09;;;10.59
67509;BMP280;54354;44.724;11.284;2023-12-20T03:47:34;101445.84;;;10.55
67509;BMP280;54354;44.724;11.284;2023-12-20T03:49:59;101440.56;;;10.55
67509;BMP280;54354;44.724;11.284;2023-12-20T03:52:25;101443.56;;;10.53
67509;BMP280;54354;44.724;11.284;2023-12-20T03:54:50;101449.25;;;10.52
67509;BMP280;54354;44.724;11.284;2023-12-20T03:57:16;101438.31;;;10.46
67509;BMP280;54354;44.724;11.284;2023-12-20T03:59:41;101440.19;;;10.42
67509;BMP280;54354;44.724;11.284;2023-12-20T04:02:07;101414.88;;;10.37
67509;BMP280;54354;44.724;11.284;2023-12-20T04:04:33;101417.53;;;10.34
67509;BMP280;54354;44.724;11.284;2023-12-20T04:06:58;101425.13;;;10.32
67509;BMP280;54354;44.724;11.284;2023-12-20T04:09:24;101411.13;;;10.28
67509;BMP280;54354;44.724;11.284;2023-12-20T04:11:49;101409.25;;;10.25
67509;BMP280;54354;44.724;11.284;2023-12-20T04:14:15;101408.09;;;10.19
67509;BMP280;54354;44.724;11.284;2023-12-20T04:16:40;101414.19;;;10.16
67509;BMP280;54354;44.724;11.284;2023-12-20T04:19:06;101402.84;;;10.11
67509;BMP280;54354;44.724;11.284;2023-12-20T04:21:31;101404.78;;;10.07
67509;BMP280;54354;44.724;11.284;2023-12-20T04:23:57;101399.09;;;10.02
67509;BMP280;54354;44.724;11.284;2023-12-20T04:26:22;101391.16;;;9.95
67509;BMP280;54354;44.724;11.284;2023-12-20T04:28:47;101398.72;;;9.96
67509;BMP280;54354;44.724;11.284;2023-12-20T04:31:13;101396.84;;;9.93
67509;BMP280;54354;44.724;11.284;2023-12-20T04:33:39;101377.22;;;9.87
67509;BMP280;54354;44.724;11.284;2023-12-20T04:36:04;101385.50;;;9.85
67509;BMP280;54354;44.724;11.284;2023-12-20T04:38:30;101374.19;;;9.85
67509;BMP280;54354;44.724;11.284;2023-12-20T04:40:55;101378.31;;;9.82
67509;BMP280;54354;44.724;11.284;2023-12-20T04:43:21;101373.44;;;9.77
67509;BMP280;54354;44.724;11.284;2023-12-20T04:45:47;101353.03;;;9.74
67509;BMP280;54354;44.724;11.284;2023-12-20T04:48:12;101357.59;;;9.77
67509;BMP280;54354;44.724;11.284;2023-12-20T04:50:38;101350.00;;;9.76
67509;BMP280;54354;44.724;11.284;2023-12-20T04:53:03;101357.56;;;9.74
67509;BMP280;54354;44.724;11.284;2023-12-20T04:55:29;101347.75;;;9.71
67509;BMP280;54354;44.724;11.284;2023-12-20T04:57:55;101362.09;;;9.73
67509;BMP280;54354;44.724;11.284;2023-12-20T05:00:21;101368.13;;;9.74
67509;BMP280;54354;44.724;11.284;2023-12-20T05:02:47;101366.63;;;9.76
67509;BMP280;54354;44.724;11.284;2023-12-20T05:05:13;101379.50;;;9.78
67509;BMP280;54354;44.724;11.284;2023-12-20T05:07:40;101367.38;;;9.77
67509;BMP280;54354;44.724;11.284;2023-12-20T05:10:06;101380.25;;;9.78
67509;BMP280;54354;44.724;11.284;2023-12-20T05:12:33;101387.78;;;9.80
67509;BMP280;54354;44.724;11.284;2023-12-20T05:14:59;101393.06;;;9.83
67509;BMP280;54354;44.724;11.284;2023-12-20T05:17:25;101385.16;;;9.83
67509;BMP280;54354;44.724;11.284;2023-12-20T05:19:51;101397.22;;;9.88
67509;BMP280;54354;44.724;11.284;2023-12-20T05:22:16;101377.19;;;9.91
67509;BMP280;54354;44.724;11.284;2023-12-20T05:24:42;101383.63;;;9.93
67509;BMP280;54354;44.724;11.284;2023-12-20T05:27:08;101379.47;;;9.96
67509;BMP280;54354;44.724;11.284;2023-12-20T05:29:33;101374.94;;;9.96
67509;BMP280;54354;44.724;11.284;2023-12-20T05:31:59;101375.69;;;9.97
67509;BMP280;54354;44.724;11.284;2023-12-20T05:34:24;101376.81;;;9.96
67509;BMP280;54354;44.724;11.284;2023-12-20T05:36:50;101386.97;;;10.01
67509;BMP280;54354;44.724;11.284;2023-12-20T05:39:15;101378.69;;;10.02
67509;BMP280;54354;44.724;11.284;2023-12-20T05:41:41;101374.16;;;9.99
67509;BMP280;54354;44.724;11.284;2023-12-20T05:44:06;101374.16;;;9.96
67509;BMP280;54354;44.724;11.284;2023-12-20T05:46:32;101383.63;;;9.97
67509;BMP280;54354;44.724;11.284;2023-12-20T05:48:58;101371.13;;;9.97
67509;BMP280;54354;44.724;11.284;2023-12-20T05:51:23;101383.59;;;10.04
67509;BMP280;54354;44.724;11.284;2023-12-20T05:53:49;101368.50;;;10.04
67509;BMP280;54354;44.724;11.284;2023-12-20T05:56:15;101353.72;;;10.00
67509;BMP280;54354;44.724;11.284;2023-12-20T05:58:41;101365.06;;;10.00
67509;BMP280;54354;44.724;11.284;2023-12-20T06:01:06;101349.56;;;10.02
67509;BMP280;54354;44.724;11.284;2023-12-20T06:03:34;101365.81;;;10.08
67509;BMP280;54354;44.724;11.284;2023-12-20T06:05:59;101364.66;;;10.09
67509;BMP280;54354;44.724;11.284;2023-12-20T06:08:29;101352.53;;;10.19
67509;BMP280;54354;44.724;11.284;2023-12-20T06:10:54;101355.22;;;10.15
67509;BMP280;54354;44.724;11.284;2023-12-20T06:13:20;101357.81;;;10.19
67509;BMP280;54354;44.724;11.284;2023-12-20T06:15:45;101342.72;;;10.19
67509;BMP280;54354;44.724;11.284;2023-12-20T06:18:11;101353.69;;;10.18
67509;BMP280;54354;44.724;11.284;2023-12-20T06:20:36;101358.97;;;10.21
67509;BMP280;54354;44.724;11.284;2023-12-20T06:23:02;101372.94;;;10.25
67509;BMP280;54354;44.724;11.284;2023-12-20T06:25:27;101360.09;;;10.24
67509;BMP280;54354;44.724;11.284;2023-12-20T06:27:53;101359.72;;;10.25
67509;BMP280;54354;44.724;11.284;2023-12-20T06:30:18;101338.53;;;10.29
67509;BMP280;54354;44.724;11.284;2023-12-20T06:32:44;101327.94;;;10.29
67509;BMP280;54354;44.724;11.284;2023-12-20T06:35:12;101318.88;;;10.26
67509;BMP280;54354;44.724;11.284;2023-12-20T06:37:37;101327.94;;;10.29
67509;BMP280;54354;44.724;11.284;2023-12-20T06:40:03;101315.09;;;10.24
67509;BMP280;54354;44.724;11.284;2023-12-20T06:42:29;101327.97;;;10.22
67509;BMP280;54354;44.724;11.284;2023-12-20T06:44:54;101311.31;;;10.21
67509;BMP280;54354;44.724;11.284;2023-12-20T06:47:20;101304.91;;;10.22
67509;BMP280;54354;44.724;11.284;2023-12-20T06:49:46;101325.69;;;10.24
67509;BMP280;54354;44.724;11.284;2023-12-20T06:52:11;101339.28;;;10.26
67509;BMP280;54354;44.724;11.284;2023-12-20T06:54:37;101335.88;;;10.29
67509;BMP280;54354;44.724;11.284;2023-12-20T06:57:03;101347.94;;;10.33
67509;BMP280;54354;44.724;11.284;2023-12-20T06:59:29;101344.53;;;10.36
67509;BMP280;54354;44.724;11.284;2023-12-20T07:01:55;101337.34;;;10.41
67509;BMP280;54354;44.724;11.284;2023-12-20T07:04:20;101343.75;;;10.47
67509;BMP280;54354;44.724;11.284;2023-12-20T07:06:48;101331.25;;;10.47
67509;BMP280;54354;44.724;11.284;2023-12-20T07:09:16;101350.50;;;10.51
67509;BMP280;54354;44.724;11.284;2023-12-20T07:11:42;101352.72;;;10.60
67509;BMP280;54354;44.724;11.284;2023-12-20T07:14:07;101350.47;;;10.65
67509;BMP280;54354;44.724;11.284;2023-12-20T07:16:33;101351.97;;;10.67
67509;BMP280;54354;44.724;11.284;2023-12-20T07:18:58;101336.41;;;10.69
67509;BMP280;54354;44.724;11.284;2023-12-20T07:21:24;101337.94;;;10.70
67509;BMP280;54354;44.724;11.284;2023-12-20T07:23:49;101336.06;;;10.70
67509;BMP280;54354;44.724;11.284;2023-12-20T07:26:15;101340.94;;;10.72
67509;BMP280;54354;44.724;11.284;2023-12-20T07:28:41;101341.69;;;10.76
67509;BMP280;54354;44.724;11.284;2023-12-20T07:31:06;101357.16;;;10.81
67509;BMP280;54354;44.724;11.284;2023-12-20T07:33:32;101349.22;;;10.81
67509;BMP280;54354;44.724;11.284;2023-12-20T07:35:59;101348.09;;;10.82
67509;BMP280;54354;44.724;11.284;2023-12-20T07:38:24;101362.44;;;10.88
67509;BMP280;54354;44.724;11.284;2023-12-20T07:40:50;101364.66;;;10.93
67509;BMP280;54354;44.724;11.284;2023-12-20T07:43:16;101371.81;;;10.96
67509;BMP280;54354;44.724;11.284;2023-12-20T07:45:41;101368.06;;;10.97
67509;BMP280;54354;44.724;11.284;2023-12-20T07:48:07;101378.22;;;11.02
67509;BMP280;54354;44.724;11.284;2023-12-20T07:50:33;101382.41;;;11.03
67509;BMP280;54354;44.724;11.284;2023-12-20T07:52:59;101379.75;;;11.03
67509;BMP280;54354;44.724;11.284;2023-12-20T07:55:26;101381.25;;;11.01
67509;BMP280;54354;44.724;11.284;2023-12-20T07:57:51;101379.38;;;11.01
67509;BMP280;54354;44.724;11.284;2023-12-20T08:00:17;101364.97;;;11.02
67509;BMP280;54354;44.724;11.284;2023-12-20T08:02:43;101375.22;;;11.00
67509;BMP280;54354;44.724;11.284;2023-12-20T08:05:09;101373.31;;;11.01
67509;BMP280;54354;44.724;11.284;2023-12-20T08:07:34;101388.81;;;11.02
67509;BMP280;54354;44.724;11.284;2023-12-20T08:10:00;101386.94;;;11.06
67509;BMP280;54354;44.724;11.284;2023-12-20T08:12:26;101387.28;;;11.08
67509;BMP280;54354;44.724;11.284;2023-12-20T08:14:53;101381.59;;;11.10
67509;BMP280;54354;44.724;11.284;2023-12-20T08:17:19;101399.72;;;11.15
67509;BMP280;54354;44.724;11.284;2023-12-20T08:19:44;101399.31;;;11.20
67509;BMP280;54354;44.724;11.284;2023-12-20T08:22:10;101392.44;;;11.23
67509;BMP280;54354;44.724;11.284;2023-12-20T08:24:37;101396.63;;;11.24
67509;BMP280;54354;44.724;11.284;2023-12-20T08:27:03;101395.88;;;11.27
67509;BMP280;54354;44.724;11.284;2023-12-20T08:29:28;101406.06;;;11.28
67509;BMP280;54354;44.724;11.284;2023-12-20T08:31:55;101394.34;;;11.29
67509;BMP280;54354;44.724;11.284;2023-12-20T08:34:21;101396.56;;;11.34
67509;BMP280;54354;44.724;11.284;2023-12-20T08:36:46;101374.91;;;11.39
67509;BMP280;54354;44.724;11.284;2023-12-20T08:39:12;101372.25;;;11.39
67509;BMP280;54354;44.724;11.284;2023-12-20T08:41:37;101385.13;;;11.41
67509;BMP280;54354;44.724;11.284;2023-12-20T08:44:03;101389.66;;;11.44
67509;BMP280;54354;44.724;11.284;2023-12-20T08:46:29;101394.94;;;11.48
67509;BMP280;54354;44.724;11.284;2023-12-20T08:48:55;101379.78;;;11.48
67509;BMP280;54354;44.724;11.284;2023-12-20T08:51:20;101382.41;;;11.52
67509;BMP280;54354;44.724;11.284;2023-12-20T08:53:48;101385.41;;;11.54
67509;BMP280;54354;44.724;11.284;2023-12-20T08:56:14;101387.28;;;11.57
67509;BMP280;54354;44.724;11.284;2023-12-20T08:58:40;101380.81;;;11.58
67509;BMP280;54354;44.724;11.284;2023-12-20T09:01:06;101389.84;;;11.64
67509;BMP280;54354;44.724;11.284;2023-12-20T09:03:32;101401.19;;;11.68
67509;BMP280;54354;44.724;11.284;2023-12-20T09:05:58;101394.69;;;11.73
67509;BMP280;54354;44.724;11.284;2023-12-20T09:08:24;101390.09;;;11.77
67509;BMP280;54354;44.724;11.284;2023-12-20T09:10:49;101388.56;;;11.79
67509;BMP280;54354;44.724;11.284;2023-12-20T09:13:15;101401.00;;;11.86
67509;BMP280;54354;44.724;11.284;2023-12-20T09:15:41;101399.09;;;11.90
67509;BMP280;54354;44.724;11.284;2023-12-20T09:18:06;101407.00;;;11.93
67509;BMP280;54354;44.724;11.284;2023-12-20T09:20:33;101395.59;;;11.97
67509;BMP280;54354;44.724;11.284;2023-12-20T09:22:59;101401.22;;;12.02
67509;BMP280;54354;44.724;11.284;2023-12-20T09:25:24;101407.22;;;12.06
67509;BMP280;54354;44.724;11.284;2023-12-20T09:27:52;101404.56;;;12.10
67509;BMP280;54354;44.724;11.284;2023-12-20T09:30:18;101406.41;;;12.13
67509;BMP280;54354;44.724;11.284;2023-12-20T09:32:44;101410.53;;;12.17
67509;BMP280;54354;44.724;11.284;2023-12-20T09:35:10;101407.50;;;12.19
67509;BMP280;54354;44.724;11.284;2023-12-20T09:37:36;101416.16;;;12.23
67509;BMP280;54354;44.724;11.284;2023-12-20T09:40:02;101395.28;;;12.25
67509;BMP280;54354;44.724;11.284;2023-12-20T09:45:08;101394.78;;;12.34
67509;BMP280;54354;44.724;11.284;2023-12-20T09:47:35;101420.16;;;12.38
67509;BMP280;54354;44.724;11.284;2023-12-20T09:50:02;101403.84;;;12.40
67509;BMP280;54354;44.724;11.284;2023-12-20T09:52:28;101395.41;;;12.45
67509;BMP280;54354;44.724;11.284;2023-12-20T09:54:55;101399.19;;;12.48
67509;BMP280;54354;44.724;11.284;2023-12-20T09:57:21;101395.25;;;12.56
67509;BMP280;54354;44.724;11.284;2023-12-20T09:59:47;101385.75;;;12.58
67509;BMP280;54354;44.724;11.284;2023-12-20T10:02:13;101381.88;;;12.63
67509;BMP280;54354;44.724;11.284;2023-12-20T10:04:46;101362.19;;;12.60
67509;BMP280;54354;44.724;11.284;2023-12-20T10:07:13;101370.81;;;12.68
67509;BMP280;54354;44.724;11.284;2023-12-20T10:09:38;101361.97;;;12.75
67509;BMP280;54354;44.724;11.284;2023-12-20T10:12:05;101344.09;;;12.79
67509;BMP280;54354;44.724;11.284;2023-12-20T10:14:31;101348.59;;;12.82
67509;BMP280;54354;44.724;11.284;2023-12-20T10:17:03;101337.25;;;12.78
67509;BMP280;54354;44.724;11.284;2023-12-20T10:19:29;101337.09;;;12.88
67509;BMP280;54354;44.724;11.284;2023-12-20T10:21:55;101334.44;;;12.88
67509;BMP280;54354;44.724;11.284;2023-12-20T10:24:20;101328.03;;;12.86
67509;BMP280;54354;44.724;11.284;2023-12-20T10:26:46;101327.94;;;12.89
67509;BMP280;54354;44.724;11.284;2023-12-20T10:29:12;101321.16;;;12.88
67509;BMP280;54354;44.724;11.284;2023-12-20T10:31:37;101312.75;;;12.90
67509;BMP280;54354;44.724;11.284;2023-12-20T10:34:05;101316.19;;;12.90
67509;BMP280;54354;44.724;11.284;2023-12-20T10:36:32;101294.13;;;12.90
67509;BMP280;54354;44.724;11.284;2023-12-20T10:38:58;101305.88;;;12.92
67509;BMP280;54354;44.724;11.284;2023-12-20T10:41:26;101301.72;;;12.91
67509;BMP280;54354;44.724;11.284;2023-12-20T10:43:59;101296.38;;;12.95
67509;BMP280;54354;44.724;11.284;2023-12-20T10:46:26;101289.41;;;13.01
67509;BMP280;54354;44.724;11.284;2023-12-20T10:48:56;101287.84;;;13.04
67509;BMP280;54354;44.724;11.284;2023-12-20T10:51:23;101292.22;;;13.14
67509;BMP280;54354;44.724;11.284;2023-12-20T10:53:50;101289.19;;;13.15
67509;BMP280;54354;44.724;11.284;2023-12-20T10:56:17;101291.75;;;13.19
67509;BMP280;54354;44.724;11.284;2023-12-20T10:58:49;101295.44;;;13.25
67509;BMP280;54354;44.724;11.284;2023-12-20T11:01:16;101291.22;;;13.28
67509;BMP280;54354;44.724;11.284;2023-12-20T11:03:50;101282.09;;;13.29
67509;BMP280;54354;44.724;11.284;2023-12-20T11:08:58;101268.97;;;13.38
67509;BMP280;54354;44.724;11.284;2023-12-20T11:14:22;101253.16;;;13.50
67509;BMP280;54354;44.724;11.284;2023-12-20T11:16:49;101271.28;;;13.56
67509;BMP280;54354;44.724;11.284;2023-12-20T11:19:16;101264.50;;;13.55
67509;BMP280;54354;44.724;11.284;2023-12-20T11:21:42;101272.00;;;13.60
67509;BMP280;54354;44.724;11.284;2023-12-20T11:24:07;101271.50;;;13.65
67509;BMP280;54354;44.724;11.284;2023-12-20T11:26:33;101274.41;;;13.70
67509;BMP280;54354;44.724;11.284;2023-12-20T11:29:33;101262.00;;;13.84
67509;BMP280;54354;44.724;11.284;2023-12-20T11:32:01;101256.00;;;13.79
67509;BMP280;54354;44.724;11.284;2023-12-20T11:34:32;101254.50;;;13.78
67509;BMP280;54354;44.724;11.284;2023-12-20T11:37:02;101256.31;;;13.82
67509;BMP280;54354;44.724;11.284;2023-12-20T11:39:28;101266.03;;;13.92
67509;BMP280;54354;44.724;11.284;2023-12-20T11:41:55;101246.69;;;13.88
67509;BMP280;54354;44.724;11.284;2023-12-20T12:18:16;101212.59;;;13.99
67509;BMP280;54354;44.724;11.284;2023-12-20T12:20:41;101214.53;;;13.98
67509;BMP280;54354;44.724;11.284;2023-12-20T12:23:07;101223.66;;;13.97
67509;BMP280;54354;44.724;11.284;2023-12-20T12:25:35;101208.94;;;13.93
67509;BMP280;54354;44.724;11.284;2023-12-20T12:28:01;101216.84;;;13.96
67509;BMP280;54354;44.724;11.284;2023-12-20T12:30:27;101212.69;;;13.95
67509;BMP280;54354;44.724;11.284;2023-12-20T12:32:53;101218.75;;;13.96
67509;BMP280;54354;44.724;11.284;2023-12-20T12:35:19;101219.16;;;13.94
67509;BMP280;54354;44.724;11.284;2023-12-20T12:37:45;101217.59;;;13.97
67509;BMP280;54354;44.724;11.284;2023-12-20T12:40:16;101211.16;;;13.94
67509;BMP280;54354;44.724;11.284;2023-12-20T12:42:44;101204.63;;;13.99
67509;BMP280;54354;44.724;11.284;2023-12-20T12:45:10;101208.69;;;14.03
67509;BMP280;54354;44.724;11.284;2023-12-20T12:47:39;101205.16;;;14.06
67509;BMP280;54354;44.724;11.284;2023-12-20T12:50:05;101218.59;;;14.03
67509;BMP280;54354;44.724;11.284;2023-12-20T12:52:31;101199.28;;;13.99
67509;BMP280;54354;44.724;11.284;2023-12-20T12:54:56;101207.69;;;13.97
67509;BMP280;54354;44.724;11.284;2023-12-20T12:57:22;101199.38;;;13.95
67509;BMP280;54354;44.724;11.284;2023-12-20T12:59:49;101194.44;;;13.94
67509;BMP280;54354;44.724;11.284;2023-12-20T13:02:15;101188.72;;;13.95
67509;BMP280;54354;44.724;11.284;2023-12-20T13:04:41;101183.72;;;13.97
67509;BMP280;54354;44.724;11.284;2023-12-20T13:07:07;101187.16;;;13.98
67509;BMP280;54354;44.724;11.284;2023-12-20T13:09:33;101179.56;;;13.96
67509;BMP280;54354;44.724;11.284;2023-12-20T13:11:59;101182.56;;;13.98
67509;BMP280;54354;44.724;11.284;2023-12-20T13:14:24;101168.91;;;13.96
67509;BMP280;54354;44.724;11.284;2023-12-20T13:16:50;101161.28;;;13.98
67509;BMP280;54354;44.724;11.284;2023-12-20T13:19:16;101168.09;;;13.99
67509;BMP280;54354;44.724;11.284;2023-12-20T13:21:41;101167.34;;;13.99
67509;BMP280;54354;44.724;11.284;2023-12-20T13:24:07;101178.00;;;13.99
67509;BMP280;54354;44.724;11.284;2023-12-20T13:26:32;101171.56;;;13.96
67509;BMP280;54354;44.724;11.284;2023-12-20T13:28:58;101176.91;;;13.96
67509;BMP280;54354;44.724;11.284;2023-12-20T13:31:24;101167.53;;;13.92
67509;BMP280;54354;44.724;11.284;2023-12-20T13:33:50;101172.84;;;13.92
67509;BMP280;54354;44.724;11.284;2023-12-20T13:36:17;101168.34;;;13.89
67509;BMP280;54354;44.724;11.284;2023-12-20T13:38:43;101173.66;;;13.89
67509;BMP280;54354;44.724;11.284;2023-12-20T13:41:09;101168.34;;;13.89
67509;BMP280;54354;44.724;11.284;2023-12-20T13:43:34;101168.72;;;13.87
67509;BMP280;54354;44.724;11.284;2023-12-20T13:46:00;101165.34;;;13.87
67509;BMP280;54354;44.724;11.284;2023-12-20T13:48:26;101179.06;;;13.85
67509;BMP280;54354;44.724;11.284;2023-12-20T13:50:51;101177.91;;;13.86
67509;BMP280;54354;44.724;11.284;2023-12-20T13:53:17;101182.13;;;13.84
67509;BMP280;54354;44.724;11.284;2023-12-20T13:55:42;101182.47;;;13.86
67509;BMP280;54354;44.724;11.284;2023-12-20T13:58:08;101187.03;;;13.85
67509;BMP280;54354;44.724;11.284;2023-12-20T14:00:35;101171.06;;;13.85
67509;BMP280;54354;44.724;11.284;2023-12-20T14:03:03;101172.59;;;13.86
67509;BMP280;54354;44.724;11.284;2023-12-20T14:05:29;101172.59;;;13.86
67509;BMP280;54354;44.724;11.284;2023-12-20T14:07:55;101182.38;;;13.89
67509;BMP280;54354;44.724;11.284;2023-12-20T14:10:23;101178.56;;;13.90
67509;BMP280;54354;44.724;11.284;2023-12-20T14:12:52;101184.53;;;13.94
67509;BMP280;54354;44.724;11.284;2023-12-20T14:15:17;101182.66;;;13.95
67509;BMP280;54354;44.724;11.284;2023-12-20T14:17:43;101173.88;;;13.94
67509;BMP280;54354;44.724;11.284;2023-12-20T14:20:09;101173.13;;;13.94
67509;BMP280;54354;44.724;11.284;2023-12-20T14:22:35;101183.38;;;13.95